sensor_id;sensor_type;location;lat;lon;timestamp;temperature;humidity
56300;DHT22;42209;6.376;-10.782;2023-07-29T00:01:09;22.70;81.90
56300;DHT22;42209;6.376;-10.782;2023-07-29T00:03:37;22.80;82.20
56300;DHT22;42209;6.376;-10.782;2023-07-29T00:06:06;22.90;82.10
56300;DHT22;42209;6.376;-10.782;2023-07-29T00:08:35;23.00;81.90
56300;DHT22;42209;6.376;-10.782;2023-07-29T00:11:04;23.10;81.70
56300;DHT22;42209;6.376;-10.782;2023-07-29T00:13:32;23.00;75.30
56300;DHT22;42209;6.376;-10.782;2023-07-29T00:16:01;22.70;72.20
56300;DHT22;42209;6.376;-10.782;2023-07-29T00:18:29;22.40;69.20
56300;DHT22;42209;6.376;-10.782;2023-07-29T00:20:58;22.20;67.40
56300;DHT22;42209;6.376;-10.782;2023-07-29T00:23:27;22.10;65.50
56300;DHT22;42209;6.376;-10.782;2023-07-29T00:25:55;21.90;64.90
56300;DHT22;42209;6.376;-10.782;2023-07-29T00:28:24;22.00;68.90
56300;DHT22;42209;6.376;-10.782;2023-07-29T00:30:52;22.20;74.00
56300;DHT22;42209;6.376;-10.782;2023-07-29T00:33:21;22.30;76.00
56300;DHT22;42209;6.376;-10.782;2023-07-29T00:35:49;22.40;77.50
56300;DHT22;42209;6.376;-10.782;2023-07-29T00:38:18;22.40;78.50
56300;DHT22;42209;6.376;-10.782;2023-07-29T00:40:47;22.50;79.70
56300;DHT22;42209;6.376;-10.782;2023-07-29T00:43:16;22.60;80.80
56300;DHT22;42209;6.376;-10.782;2023-07-29T00:45:48;22.60;81.40
56300;DHT22;42209;6.376;-10.782;2023-07-29T00:48:16;22.70;81.90
56300;DHT22;42209;6.376;-10.782;2023-07-29T00:50:45;22.70;82.00
56300;DHT22;42209;6.376;-10.782;2023-07-29T00:53:13;22.80;82.30
56300;DHT22;42209;6.376;-10.782;2023-07-29T00:55:42;22.90;82.20
56300;DHT22;42209;6.376;-10.782;2023-07-29T00:58:11;23.00;81.90
56300;DHT22;42209;6.376;-10.782;2023-07-29T01:00:41;23.00;80.40
56300;DHT22;42209;6.376;-10.782;2023-07-29T01:03:11;22.80;74.00
56300;DHT22;42209;6.376;-10.782;2023-07-29T01:05:56;22.60;70.70
56300;DHT22;42209;6.376;-10.782;2023-07-29T01:08:37;22.30;68.50
56300;DHT22;42209;6.376;-10.782;2023-07-29T01:13:50;22.00;64.60
56300;DHT22;42209;6.376;-10.782;2023-07-29T01:16:30;22.00;67.60
56300;DHT22;42209;6.376;-10.782;2023-07-29T01:19:02;22.10;72.90
56300;DHT22;42209;6.376;-10.782;2023-07-29T01:21:33;22.20;75.50
56300;DHT22;42209;6.376;-10.782;2023-07-29T01:24:03;22.30;77.50
56300;DHT22;42209;6.376;-10.782;2023-07-29T01:26:31;22.50;78.50
56300;DHT22;42209;6.376;-10.782;2023-07-29T01:29:00;22.50;79.60
56300;DHT22;42209;6.376;-10.782;2023-07-29T01:31:34;22.60;80.70
56300;DHT22;42209;6.376;-10.782;2023-07-29T01:34:35;22.60;81.50
56300;DHT22;42209;6.376;-10.782;2023-07-29T01:37:09;22.70;82.20
56300;DHT22;42209;6.376;-10.782;2023-07-29T01:39:40;22.70;82.30
56300;DHT22;42209;6.376;-10.782;2023-07-29T01:42:09;22.80;82.50
56300;DHT22;42209;6.376;-10.782;2023-07-29T01:44:37;22.90;82.20
56300;DHT22;42209;6.376;-10.782;2023-07-29T01:47:06;22.90;82.20
56300;DHT22;42209;6.376;-10.782;2023-07-29T01:49:34;23.00;79.40
56300;DHT22;42209;6.376;-10.782;2023-07-29T01:52:03;22.80;73.90
56300;DHT22;42209;6.376;-10.782;2023-07-29T01:54:32;22.60;70.60
56300;DHT22;42209;6.376;-10.782;2023-07-29T01:57:00;22.30;68.40
56300;DHT22;42209;6.376;-10.782;2023-07-29T01:59:29;22.20;66.70
56300;DHT22;42209;6.376;-10.782;2023-07-29T02:01:57;22.00;65.90
56300;DHT22;42209;6.376;-10.782;2023-07-29T02:04:26;22.10;71.70
56300;DHT22;42209;6.376;-10.782;2023-07-29T02:06:55;22.20;75.40
56300;DHT22;42209;6.376;-10.782;2023-07-29T02:09:23;22.30;77.20
56300;DHT22;42209;6.376;-10.782;2023-07-29T02:11:52;22.50;78.80
56300;DHT22;42209;6.376;-10.782;2023-07-29T02:14:20;22.50;80.00
56300;DHT22;42209;6.376;-10.782;2023-07-29T02:16:49;22.50;81.00
56300;DHT22;42209;6.376;-10.782;2023-07-29T02:19:17;22.60;81.90
56300;DHT22;42209;6.376;-10.782;2023-07-29T02:21:46;22.70;82.70
56300;DHT22;42209;6.376;-10.782;2023-07-29T02:24:14;22.70;83.00
56300;DHT22;42209;6.376;-10.782;2023-07-29T02:26:43;22.80;83.30
56300;DHT22;42209;6.376;-10.782;2023-07-29T02:29:11;22.80;83.30
56300;DHT22;42209;6.376;-10.782;2023-07-29T02:31:40;22.90;83.00
56300;DHT22;42209;6.376;-10.782;2023-07-29T02:34:08;23.00;82.80
56300;DHT22;42209;6.376;-10.782;2023-07-29T02:36:37;23.00;77.70
56300;DHT22;42209;6.376;-10.782;2023-07-29T02:39:08;22.70;73.10
56300;DHT22;42209;6.376;-10.782;2023-07-29T02:41:36;22.50;70.40
56300;DHT22;42209;6.376;-10.782;2023-07-29T02:44:05;22.20;68.20
56300;DHT22;42209;6.376;-10.782;2023-07-29T02:46:33;22.10;65.80
56300;DHT22;42209;6.376;-10.782;2023-07-29T02:49:03;22.00;66.00
56300;DHT22;42209;6.376;-10.782;2023-07-29T02:51:31;22.10;71.90
56300;DHT22;42209;6.376;-10.782;2023-07-29T02:54:00;22.20;75.80
56300;DHT22;42209;6.376;-10.782;2023-07-29T02:56:28;22.30;77.30
56300;DHT22;42209;6.376;-10.782;2023-07-29T02:58:57;22.50;78.70
56300;DHT22;42209;6.376;-10.782;2023-07-29T03:01:26;22.50;79.50
56300;DHT22;42209;6.376;-10.782;2023-07-29T03:03:54;22.60;80.70
56300;DHT22;42209;6.376;-10.782;2023-07-29T03:06:23;22.60;81.60
56300;DHT22;42209;6.376;-10.782;2023-07-29T03:08:52;22.70;82.30
56300;DHT22;42209;6.376;-10.782;2023-07-29T03:11:21;22.70;82.70
56300;DHT22;42209;6.376;-10.782;2023-07-29T03:13:49;22.80;83.40
56300;DHT22;42209;6.376;-10.782;2023-07-29T03:16:18;22.80;82.80
56300;DHT22;42209;6.376;-10.782;2023-07-29T03:18:52;22.90;82.60
56300;DHT22;42209;6.376;-10.782;2023-07-29T03:21:21;23.00;82.40
56300;DHT22;42209;6.376;-10.782;2023-07-29T03:23:49;23.00;77.10
56300;DHT22;42209;6.376;-10.782;2023-07-29T03:26:18;22.70;73.10
56300;DHT22;42209;6.376;-10.782;2023-07-29T03:28:46;22.50;70.10
56300;DHT22;42209;6.376;-10.782;2023-07-29T03:31:14;22.20;67.70
56300;DHT22;42209;6.376;-10.782;2023-07-29T03:33:44;22.10;66.80
56300;DHT22;42209;6.376;-10.782;2023-07-29T03:36:14;22.20;72.10
56300;DHT22;42209;6.376;-10.782;2023-07-29T03:38:42;22.30;76.10
56300;DHT22;42209;6.376;-10.782;2023-07-29T03:41:11;22.40;77.90
56300;DHT22;42209;6.376;-10.782;2023-07-29T03:43:39;22.40;79.20
56300;DHT22;42209;6.376;-10.782;2023-07-29T03:46:08;22.50;80.10
56300;DHT22;42209;6.376;-10.782;2023-07-29T03:48:40;22.60;81.10
56300;DHT22;42209;6.376;-10.782;2023-07-29T03:51:09;22.60;81.90
56300;DHT22;42209;6.376;-10.782;2023-07-29T03:53:38;22.70;82.50
56300;DHT22;42209;6.376;-10.782;2023-07-29T03:56:07;22.70;82.90
56300;DHT22;42209;6.376;-10.782;2023-07-29T03:58:36;22.80;83.40
56300;DHT22;42209;6.376;-10.782;2023-07-29T04:01:04;22.90;82.90
56300;DHT22;42209;6.376;-10.782;2023-07-29T04:03:34;22.90;82.70
56300;DHT22;42209;6.376;-10.782;2023-07-29T04:06:03;23.10;82.70
56300;DHT22;42209;6.376;-10.782;2023-07-29T04:08:32;23.00;76.50
56300;DHT22;42209;6.376;-10.782;2023-07-29T04:11:00;22.70;73.00
56300;DHT22;42209;6.376;-10.782;2023-07-29T04:13:28;22.50;69.90
56300;DHT22;42209;6.376;-10.782;2023-07-29T04:15:57;22.30;67.80
56300;DHT22;42209;6.376;-10.782;2023-07-29T04:18:25;22.10;66.30
56300;DHT22;42209;6.376;-10.782;2023-07-29T04:20:54;22.10;71.80
56300;DHT22;42209;6.376;-10.782;2023-07-29T04:23:22;22.20;75.60
56300;DHT22;42209;6.376;-10.782;2023-07-29T04:25:51;22.30;77.70
56300;DHT22;42209;6.376;-10.782;2023-07-29T04:28:19;22.40;79.10
56300;DHT22;42209;6.376;-10.782;2023-07-29T04:30:48;22.50;80.70
56300;DHT22;42209;6.376;-10.782;2023-07-29T04:33:16;22.60;81.30
56300;DHT22;42209;6.376;-10.782;2023-07-29T04:35:45;22.60;81.90
56300;DHT22;42209;6.376;-10.782;2023-07-29T04:38:14;22.70;82.60
56300;DHT22;42209;6.376;-10.782;2023-07-29T04:40:42;22.80;82.90
56300;DHT22;42209;6.376;-10.782;2023-07-29T04:43:11;22.80;83.60
56300;DHT22;42209;6.376;-10.782;2023-07-29T04:45:46;22.80;83.50
56300;DHT22;42209;6.376;-10.782;2023-07-29T04:48:15;22.90;83.40
56300;DHT22;42209;6.376;-10.782;2023-07-29T04:50:43;23.00;83.00
56300;DHT22;42209;6.376;-10.782;2023-07-29T04:53:11;23.00;80.40
56300;DHT22;42209;6.376;-10.782;2023-07-29T04:55:43;22.80;74.70
56300;DHT22;42209;6.376;-10.782;2023-07-29T04:58:12;22.60;71.60
56300;DHT22;42209;6.376;-10.782;2023-07-29T05:00:40;22.30;68.80
56300;DHT22;42209;6.376;-10.782;2023-07-29T05:03:09;22.20;67.10
56300;DHT22;42209;6.376;-10.782;2023-07-29T05:05:39;22.00;65.80
56300;DHT22;42209;6.376;-10.782;2023-07-29T05:08:07;22.00;66.80
56300;DHT22;42209;6.376;-10.782;2023-07-29T05:10:35;22.10;72.40
56300;DHT22;42209;6.376;-10.782;2023-07-29T05:13:04;22.30;76.00
56300;DHT22;42209;6.376;-10.782;2023-07-29T05:15:34;22.40;77.60
56300;DHT22;42209;6.376;-10.782;2023-07-29T05:18:03;22.40;79.00
56300;DHT22;42209;6.376;-10.782;2023-07-29T05:20:31;22.50;80.20
56300;DHT22;42209;6.376;-10.782;2023-07-29T05:23:01;22.60;80.80
56300;DHT22;42209;6.376;-10.782;2023-07-29T05:25:30;22.60;81.90
56300;DHT22;42209;6.376;-10.782;2023-07-29T05:27:59;22.70;82.90
56300;DHT22;42209;6.376;-10.782;2023-07-29T05:30:29;22.70;83.10
56300;DHT22;42209;6.376;-10.782;2023-07-29T05:32:58;22.80;83.40
56300;DHT22;42209;6.376;-10.782;2023-07-29T05:35:27;22.80;83.40
56300;DHT22;42209;6.376;-10.782;2023-07-29T05:37:55;22.90;83.30
56300;DHT22;42209;6.376;-10.782;2023-07-29T05:40:23;22.90;83.10
56300;DHT22;42209;6.376;-10.782;2023-07-29T05:42:52;23.10;82.10
56300;DHT22;42209;6.376;-10.782;2023-07-29T05:45:21;22.80;75.30
56300;DHT22;42209;6.376;-10.782;2023-07-29T05:47:51;22.60;71.90
56300;DHT22;42209;6.376;-10.782;2023-07-29T05:50:19;22.30;69.60
56300;DHT22;42209;6.376;-10.782;2023-07-29T05:52:48;22.20;67.70
56300;DHT22;42209;6.376;-10.782;2023-07-29T05:55:17;22.00;66.70
56300;DHT22;42209;6.376;-10.782;2023-07-29T05:57:45;22.20;72.40
56300;DHT22;42209;6.376;-10.782;2023-07-29T06:00:14;22.20;75.80
56300;DHT22;42209;6.376;-10.782;2023-07-29T06:02:42;22.40;77.80
56300;DHT22;42209;6.376;-10.782;2023-07-29T06:05:15;22.50;79.40
56300;DHT22;42209;6.376;-10.782;2023-07-29T06:07:43;22.50;80.40
56300;DHT22;42209;6.376;-10.782;2023-07-29T06:10:13;22.60;81.60
56300;DHT22;42209;6.376;-10.782;2023-07-29T06:12:42;22.60;82.50
56300;DHT22;42209;6.376;-10.782;2023-07-29T06:15:11;22.70;83.30
56300;DHT22;42209;6.376;-10.782;2023-07-29T06:17:40;22.70;83.30
56300;DHT22;42209;6.376;-10.782;2023-07-29T06:20:09;22.80;83.80
56300;DHT22;42209;6.376;-10.782;2023-07-29T06:22:38;22.90;83.90
56300;DHT22;42209;6.376;-10.782;2023-07-29T06:25:07;22.90;83.60
56300;DHT22;42209;6.376;-10.782;2023-07-29T06:27:35;23.00;83.00
56300;DHT22;42209;6.376;-10.782;2023-07-29T06:30:05;23.00;82.50
56300;DHT22;42209;6.376;-10.782;2023-07-29T06:32:34;22.90;75.40
56300;DHT22;42209;6.376;-10.782;2023-07-29T06:35:03;22.60;71.50
56300;DHT22;42209;6.376;-10.782;2023-07-29T06:37:31;22.40;68.90
56300;DHT22;42209;6.376;-10.782;2023-07-29T06:40:00;22.20;68.20
56300;DHT22;42209;6.376;-10.782;2023-07-29T06:42:28;22.20;72.50
56300;DHT22;42209;6.376;-10.782;2023-07-29T06:44:57;22.30;77.00
56300;DHT22;42209;6.376;-10.782;2023-07-29T06:47:25;22.40;78.80
56300;DHT22;42209;6.376;-10.782;2023-07-29T06:49:54;22.40;80.10
56300;DHT22;42209;6.376;-10.782;2023-07-29T06:52:22;22.60;81.40
56300;DHT22;42209;6.376;-10.782;2023-07-29T06:54:51;22.60;82.20
56300;DHT22;42209;6.376;-10.782;2023-07-29T06:57:19;22.70;82.90
56300;DHT22;42209;6.376;-10.782;2023-07-29T06:59:48;22.80;83.10
56300;DHT22;42209;6.376;-10.782;2023-07-29T07:02:16;22.80;83.50
56300;DHT22;42209;6.376;-10.782;2023-07-29T07:04:45;22.80;83.70
56300;DHT22;42209;6.376;-10.782;2023-07-29T07:07:15;22.90;83.70
56300;DHT22;42209;6.376;-10.782;2023-07-29T07:09:43;23.00;83.30
56300;DHT22;42209;6.376;-10.782;2023-07-29T07:12:12;23.10;83.10
56300;DHT22;42209;6.376;-10.782;2023-07-29T07:14:40;23.10;80.80
56300;DHT22;42209;6.376;-10.782;2023-07-29T07:17:09;22.90;74.90
56300;DHT22;42209;6.376;-10.782;2023-07-29T07:19:40;22.60;71.40
56300;DHT22;42209;6.376;-10.782;2023-07-29T07:22:17;22.40;68.90
56300;DHT22;42209;6.376;-10.782;2023-07-29T07:24:47;22.20;66.60
56300;DHT22;42209;6.376;-10.782;2023-07-29T07:27:16;22.20;70.80
56300;DHT22;42209;6.376;-10.782;2023-07-29T07:29:44;22.30;75.60
56300;DHT22;42209;6.376;-10.782;2023-07-29T07:32:13;22.40;77.70
56300;DHT22;42209;6.376;-10.782;2023-07-29T07:34:42;22.40;79.60
56300;DHT22;42209;6.376;-10.782;2023-07-29T07:37:10;22.60;80.70
56300;DHT22;42209;6.376;-10.782;2023-07-29T07:39:39;22.60;81.50
56300;DHT22;42209;6.376;-10.782;2023-07-29T07:42:07;22.70;82.60
56300;DHT22;42209;6.376;-10.782;2023-07-29T07:44:36;22.70;83.20
56300;DHT22;42209;6.376;-10.782;2023-07-29T07:47:04;22.70;83.50
56300;DHT22;42209;6.376;-10.782;2023-07-29T07:49:33;22.80;83.50
56300;DHT22;42209;6.376;-10.782;2023-07-29T07:52:01;22.80;83.60
56300;DHT22;42209;6.376;-10.782;2023-07-29T07:54:30;22.90;83.70
56300;DHT22;42209;6.376;-10.782;2023-07-29T07:56:58;23.00;83.70
56300;DHT22;42209;6.376;-10.782;2023-07-29T07:59:27;23.10;81.00
56300;DHT22;42209;6.376;-10.782;2023-07-29T08:01:56;22.90;75.50
56300;DHT22;42209;6.376;-10.782;2023-07-29T08:04:25;22.60;72.10
56300;DHT22;42209;6.376;-10.782;2023-07-29T08:06:53;22.40;69.00
56300;DHT22;42209;6.376;-10.782;2023-07-29T08:09:22;22.20;67.20
56300;DHT22;42209;6.376;-10.782;2023-07-29T08:11:51;22.10;70.00
56300;DHT22;42209;6.376;-10.782;2023-07-29T08:14:19;22.20;75.30
56300;DHT22;42209;6.376;-10.782;2023-07-29T08:16:48;22.30;77.50
56300;DHT22;42209;6.376;-10.782;2023-07-29T08:19:16;22.40;79.20
56300;DHT22;42209;6.376;-10.782;2023-07-29T08:21:47;22.50;80.60
56300;DHT22;42209;6.376;-10.782;2023-07-29T08:24:16;22.60;81.40
56300;DHT22;42209;6.376;-10.782;2023-07-29T08:26:45;22.60;82.30
56300;DHT22;42209;6.376;-10.782;2023-07-29T08:29:23;22.70;82.90
56300;DHT22;42209;6.376;-10.782;2023-07-29T08:31:52;22.70;83.40
56300;DHT22;42209;6.376;-10.782;2023-07-29T08:34:22;22.80;83.70
56300;DHT22;42209;6.376;-10.782;2023-07-29T08:36:56;22.80;83.90
56300;DHT22;42209;6.376;-10.782;2023-07-29T08:39:25;22.90;83.80
56300;DHT22;42209;6.376;-10.782;2023-07-29T08:42:01;23.00;83.40
56300;DHT22;42209;6.376;-10.782;2023-07-29T08:44:35;23.00;83.20
56300;DHT22;42209;6.376;-10.782;2023-07-29T08:47:04;22.90;76.10
56300;DHT22;42209;6.376;-10.782;2023-07-29T08:49:33;22.60;72.20
56300;DHT22;42209;6.376;-10.782;2023-07-29T08:52:03;22.40;70.00
56300;DHT22;42209;6.376;-10.782;2023-07-29T08:54:32;22.20;67.90
56300;DHT22;42209;6.376;-10.782;2023-07-29T08:57:01;22.10;65.70
56300;DHT22;42209;6.376;-10.782;2023-07-29T08:59:30;22.10;69.40
56300;DHT22;42209;6.376;-10.782;2023-07-29T09:01:59;22.20;74.20
56300;DHT22;42209;6.376;-10.782;2023-07-29T09:04:28;22.30;76.60
56300;DHT22;42209;6.376;-10.782;2023-07-29T09:06:57;22.40;78.10
56300;DHT22;42209;6.376;-10.782;2023-07-29T09:09:28;22.50;79.50
56300;DHT22;42209;6.376;-10.782;2023-07-29T09:11:57;22.60;80.40
56300;DHT22;42209;6.376;-10.782;2023-07-29T09:14:27;22.60;81.40
56300;DHT22;42209;6.376;-10.782;2023-07-29T09:16:56;22.70;82.20
56300;DHT22;42209;6.376;-10.782;2023-07-29T09:19:27;22.70;82.80
56300;DHT22;42209;6.376;-10.782;2023-07-29T09:21:56;22.80;83.30
56300;DHT22;42209;6.376;-10.782;2023-07-29T09:24:24;22.80;83.40
56300;DHT22;42209;6.376;-10.782;2023-07-29T09:26:53;22.90;83.50
56300;DHT22;42209;6.376;-10.782;2023-07-29T09:29:23;22.90;83.50
56300;DHT22;42209;6.376;-10.782;2023-07-29T09:31:51;23.00;81.40
56300;DHT22;42209;6.376;-10.782;2023-07-29T09:34:20;22.80;76.50
56300;DHT22;42209;6.376;-10.782;2023-07-29T09:36:50;22.60;72.50
56300;DHT22;42209;6.376;-10.782;2023-07-29T09:39:23;22.40;70.80
56300;DHT22;42209;6.376;-10.782;2023-07-29T09:41:52;22.20;68.50
56300;DHT22;42209;6.376;-10.782;2023-07-29T09:44:20;22.10;66.70
56300;DHT22;42209;6.376;-10.782;2023-07-29T09:46:49;22.00;64.80
56300;DHT22;42209;6.376;-10.782;2023-07-29T09:49:17;21.90;63.80
56300;DHT22;42209;6.376;-10.782;2023-07-29T09:51:46;21.90;65.60
56300;DHT22;42209;6.376;-10.782;2023-07-29T09:54:14;22.00;72.20
56300;DHT22;42209;6.376;-10.782;2023-07-29T09:56:45;22.20;74.20
56300;DHT22;42209;6.376;-10.782;2023-07-29T09:59:13;22.30;76.30
56300;DHT22;42209;6.376;-10.782;2023-07-29T10:01:47;22.40;78.00
56300;DHT22;42209;6.376;-10.782;2023-07-29T10:04:17;22.50;79.10
56300;DHT22;42209;6.376;-10.782;2023-07-29T10:06:47;22.50;80.00
56300;DHT22;42209;6.376;-10.782;2023-07-29T10:09:15;22.60;81.30
56300;DHT22;42209;6.376;-10.782;2023-07-29T10:11:44;22.60;81.70
56300;DHT22;42209;6.376;-10.782;2023-07-29T10:14:13;22.70;82.60
56300;DHT22;42209;6.376;-10.782;2023-07-29T10:16:42;22.70;82.90
56300;DHT22;42209;6.376;-10.782;2023-07-29T10:19:12;22.80;82.90
56300;DHT22;42209;6.376;-10.782;2023-07-29T10:21:44;22.90;83.10
56300;DHT22;42209;6.376;-10.782;2023-07-29T10:24:19;22.90;83.00
56300;DHT22;42209;6.376;-10.782;2023-07-29T10:26:50;23.00;82.70
56300;DHT22;42209;6.376;-10.782;2023-07-29T10:29:20;23.00;76.80
56300;DHT22;42209;6.376;-10.782;2023-07-29T10:31:53;22.70;73.20
56300;DHT22;42209;6.376;-10.782;2023-07-29T10:34:26;22.40;70.20
56300;DHT22;42209;6.376;-10.782;2023-07-29T10:36:58;22.20;68.00
56300;DHT22;42209;6.376;-10.782;2023-07-29T10:39:35;22.10;65.90
56300;DHT22;42209;6.376;-10.782;2023-07-29T10:42:07;22.00;64.70
56300;DHT22;42209;6.376;-10.782;2023-07-29T10:47:31;22.10;73.30
56300;DHT22;42209;6.376;-10.782;2023-07-29T10:50:00;22.20;76.00
56300;DHT22;42209;6.376;-10.782;2023-07-29T10:55:04;22.40;78.70
56300;DHT22;42209;6.376;-10.782;2023-07-29T10:57:50;22.50;80.30
56300;DHT22;42209;6.376;-10.782;2023-07-29T11:00:20;22.60;81.40
56300;DHT22;42209;6.376;-10.782;2023-07-29T11:03:06;22.60;82.20
56300;DHT22;42209;6.376;-10.782;2023-07-29T11:05:56;22.70;82.80
56300;DHT22;42209;6.376;-10.782;2023-07-29T11:08:32;22.70;83.20
56300;DHT22;42209;6.376;-10.782;2023-07-29T11:11:07;22.80;83.40
56300;DHT22;42209;6.376;-10.782;2023-07-29T11:13:39;22.90;82.70
56300;DHT22;42209;6.376;-10.782;2023-07-29T11:16:10;23.00;83.10
56300;DHT22;42209;6.376;-10.782;2023-07-29T11:18:44;23.00;80.10
56300;DHT22;42209;6.376;-10.782;2023-07-29T11:21:26;22.80;74.30
56300;DHT22;42209;6.376;-10.782;2023-07-29T11:23:55;22.50;70.60
56300;DHT22;42209;6.376;-10.782;2023-07-29T11:26:27;22.30;68.70
56300;DHT22;42209;6.376;-10.782;2023-07-29T11:28:55;22.20;66.50
56300;DHT22;42209;6.376;-10.782;2023-07-29T11:31:39;22.00;64.80
56300;DHT22;42209;6.376;-10.782;2023-07-29T11:34:08;21.90;63.10
56300;DHT22;42209;6.376;-10.782;2023-07-29T11:36:37;21.90;62.20
56300;DHT22;42209;6.376;-10.782;2023-07-29T11:39:10;22.00;68.40
56300;DHT22;42209;6.376;-10.782;2023-07-29T11:41:42;22.10;71.90
56300;DHT22;42209;6.376;-10.782;2023-07-29T11:44:17;22.20;73.90
56300;DHT22;42209;6.376;-10.782;2023-07-29T11:46:46;22.30;76.30
56300;DHT22;42209;6.376;-10.782;2023-07-29T11:49:17;22.40;77.70
56300;DHT22;42209;6.376;-10.782;2023-07-29T11:51:47;22.50;79.40
56300;DHT22;42209;6.376;-10.782;2023-07-29T11:54:15;22.60;80.30
56300;DHT22;42209;6.376;-10.782;2023-07-29T11:56:44;22.60;81.10
56300;DHT22;42209;6.376;-10.782;2023-07-29T11:59:13;22.70;81.70
56300;DHT22;42209;6.376;-10.782;2023-07-29T12:01:42;22.70;82.10
56300;DHT22;42209;6.376;-10.782;2023-07-29T12:04:11;22.80;82.30
56300;DHT22;42209;6.376;-10.782;2023-07-29T12:06:40;22.90;82.30
56300;DHT22;42209;6.376;-10.782;2023-07-29T12:09:10;22.90;81.90
56300;DHT22;42209;6.376;-10.782;2023-07-29T12:11:41;23.00;80.30
56300;DHT22;42209;6.376;-10.782;2023-07-29T12:14:11;22.80;74.60
56300;DHT22;42209;6.376;-10.782;2023-07-29T12:16:40;22.60;70.80
56300;DHT22;42209;6.376;-10.782;2023-07-29T12:19:13;22.40;68.30
56300;DHT22;42209;6.376;-10.782;2023-07-29T12:21:42;22.20;66.80
56300;DHT22;42209;6.376;-10.782;2023-07-29T12:24:18;22.10;64.80
56300;DHT22;42209;6.376;-10.782;2023-07-29T12:26:47;22.00;65.20
56300;DHT22;42209;6.376;-10.782;2023-07-29T12:29:18;22.00;63.70
56300;DHT22;42209;6.376;-10.782;2023-07-29T12:31:49;21.90;64.20
56300;DHT22;42209;6.376;-10.782;2023-07-29T12:34:20;21.90;62.80
56300;DHT22;42209;6.376;-10.782;2023-07-29T12:36:50;21.80;61.30
56300;DHT22;42209;6.376;-10.782;2023-07-29T12:39:27;21.70;60.50
56300;DHT22;42209;6.376;-10.782;2023-07-29T12:41:58;21.70;60.00
56300;DHT22;42209;6.376;-10.782;2023-07-29T12:44:33;21.80;64.60
56300;DHT22;42209;6.376;-10.782;2023-07-29T12:47:03;22.00;69.80
56300;DHT22;42209;6.376;-10.782;2023-07-29T12:49:32;22.20;72.30
56300;DHT22;42209;6.376;-10.782;2023-07-29T12:52:02;22.30;74.50
56300;DHT22;42209;6.376;-10.782;2023-07-29T12:54:33;22.40;76.20
56300;DHT22;42209;6.376;-10.782;2023-07-29T12:57:10;22.50;77.30
56300;DHT22;42209;6.376;-10.782;2023-07-29T12:59:39;22.50;78.60
56300;DHT22;42209;6.376;-10.782;2023-07-29T13:02:08;22.60;79.30
56300;DHT22;42209;6.376;-10.782;2023-07-29T13:04:37;22.60;80.20
56300;DHT22;42209;6.376;-10.782;2023-07-29T13:07:06;22.70;80.70
56300;DHT22;42209;6.376;-10.782;2023-07-29T13:09:34;22.80;81.10
56300;DHT22;42209;6.376;-10.782;2023-07-29T13:12:09;22.80;80.70
56300;DHT22;42209;6.376;-10.782;2023-07-29T13:14:40;22.90;80.30
56300;DHT22;42209;6.376;-10.782;2023-07-29T13:17:09;22.80;74.00
56300;DHT22;42209;6.376;-10.782;2023-07-29T13:19:40;22.60;69.90
56300;DHT22;42209;6.376;-10.782;2023-07-29T13:22:09;22.30;67.40
56300;DHT22;42209;6.376;-10.782;2023-07-29T13:24:39;22.20;65.50
56300;DHT22;42209;6.376;-10.782;2023-07-29T13:27:08;22.10;64.00
56300;DHT22;42209;6.376;-10.782;2023-07-29T13:29:36;22.00;63.00
56300;DHT22;42209;6.376;-10.782;2023-07-29T13:32:05;21.90;61.70
56300;DHT22;42209;6.376;-10.782;2023-07-29T13:34:42;21.80;60.40
56300;DHT22;42209;6.376;-10.782;2023-07-29T13:37:15;21.80;59.50
56300;DHT22;42209;6.376;-10.782;2023-07-29T13:39:43;21.70;58.30
56300;DHT22;42209;6.376;-10.782;2023-07-29T13:42:13;21.60;58.60
56300;DHT22;42209;6.376;-10.782;2023-07-29T13:45:52;21.90;63.70
56300;DHT22;42209;6.376;-10.782;2023-07-29T13:48:21;22.20;68.90
56300;DHT22;42209;6.376;-10.782;2023-07-29T13:50:50;22.30;70.50
56300;DHT22;42209;6.376;-10.782;2023-07-29T13:53:18;22.50;75.50
56300;DHT22;42209;6.376;-10.782;2023-07-29T13:55:50;22.60;76.90
56300;DHT22;42209;6.376;-10.782;2023-07-29T13:58:18;22.60;77.70
56300;DHT22;42209;6.376;-10.782;2023-07-29T14:02:05;22.70;78.40
56300;DHT22;42209;6.376;-10.782;2023-07-29T14:04:43;22.80;79.20
56300;DHT22;42209;6.376;-10.782;2023-07-29T14:07:15;22.80;79.90
56300;DHT22;42209;6.376;-10.782;2023-07-29T14:09:49;22.90;80.30
56300;DHT22;42209;6.376;-10.782;2023-07-29T14:12:18;23.00;79.90
56300;DHT22;42209;6.376;-10.782;2023-07-29T14:14:48;22.80;72.50
56300;DHT22;42209;6.376;-10.782;2023-07-29T14:17:18;22.60;69.00
56300;DHT22;42209;6.376;-10.782;2023-07-29T14:19:47;22.40;66.80
56300;DHT22;42209;6.376;-10.782;2023-07-29T14:22:15;22.30;64.60
56300;DHT22;42209;6.376;-10.782;2023-07-29T14:24:44;22.20;63.20
56300;DHT22;42209;6.376;-10.782;2023-07-29T14:27:17;22.00;62.10
56300;DHT22;42209;6.376;-10.782;2023-07-29T14:29:52;22.00;61.20
56300;DHT22;42209;6.376;-10.782;2023-07-29T14:32:30;21.90;60.70
56300;DHT22;42209;6.376;-10.782;2023-07-29T14:35:03;21.90;59.10
56300;DHT22;42209;6.376;-10.782;2023-07-29T14:37:37;21.80;58.20
56300;DHT22;42209;6.376;-10.782;2023-07-29T14:40:12;21.80;57.90
56300;DHT22;42209;6.376;-10.782;2023-07-29T14:42:42;21.70;56.40
56300;DHT22;42209;6.376;-10.782;2023-07-29T14:45:12;21.60;56.00
56300;DHT22;42209;6.376;-10.782;2023-07-29T14:47:41;21.50;54.80
56300;DHT22;42209;6.376;-10.782;2023-07-29T14:50:10;21.50;54.50
56300;DHT22;42209;6.376;-10.782;2023-07-29T14:52:39;21.70;59.70
56300;DHT22;42209;6.376;-10.782;2023-07-29T14:55:08;21.90;63.30
56300;DHT22;42209;6.376;-10.782;2023-07-29T14:57:36;22.00;67.30
56300;DHT22;42209;6.376;-10.782;2023-07-29T15:00:19;22.20;69.10
56300;DHT22;42209;6.376;-10.782;2023-07-29T15:02:51;22.30;71.30
56300;DHT22;42209;6.376;-10.782;2023-07-29T15:05:21;22.40;72.90
56300;DHT22;42209;6.376;-10.782;2023-07-29T15:07:56;22.40;74.10
56300;DHT22;42209;6.376;-10.782;2023-07-29T15:10:27;22.60;75.20
56300;DHT22;42209;6.376;-10.782;2023-07-29T15:12:58;22.60;75.70
56300;DHT22;42209;6.376;-10.782;2023-07-29T15:15:27;22.80;75.90
56300;DHT22;42209;6.376;-10.782;2023-07-29T15:17:55;22.90;76.10
56300;DHT22;42209;6.376;-10.782;2023-07-29T15:20:25;22.90;73.60
56300;DHT22;42209;6.376;-10.782;2023-07-29T15:22:54;22.70;67.90
56300;DHT22;42209;6.376;-10.782;2023-07-29T15:25:31;22.50;65.50
56300;DHT22;42209;6.376;-10.782;2023-07-29T15:28:00;22.30;63.50
56300;DHT22;42209;6.376;-10.782;2023-07-29T15:30:31;22.20;62.30
56300;DHT22;42209;6.376;-10.782;2023-07-29T15:33:05;22.10;60.70
56300;DHT22;42209;6.376;-10.782;2023-07-29T15:35:38;22.00;59.40
56300;DHT22;42209;6.376;-10.782;2023-07-29T15:38:08;22.00;60.00
56300;DHT22;42209;6.376;-10.782;2023-07-29T15:40:38;22.00;60.40
56300;DHT22;42209;6.376;-10.782;2023-07-29T15:43:07;21.90;58.30